Time;durP1;ratioP1;P1;durP2;ratioP2;P2;SDS_P1;SDS_P2;PMS_P1;PMS_P2;Temp;Humidity;BMP_temperature;BMP_pressure;BME280_temperature;BME280_humidity;BME280_pressure;Samples;Min_cycle;Max_cycle;Signal;HPM_P1;HPM_P2
2022/09/28 00:01:50;;;;;;;1.30;1.00;;;22.10;40.40;;;;;;4993139;28;20235;-62
2022/09/28 00:04:16;;;;;;;1.03;0.93;;;22.10;40.40;;;;;;4993370;28;20517;-60
2022/09/28 00:06:42;;;;;;;1.10;1.00;;;22.10;40.40;;;;;;4998366;28;20991;-61
2022/09/28 00:09:07;;;;;;;0.80;0.80;;;22.10;40.40;;;;;;4991323;28;20490;-65
2022/09/28 00:11:33;;;;;;;0.93;0.90;;;22.10;40.40;;;;;;4993566;28;20239;-61
2022/09/28 00:14:02;;;;;;;3.67;1.00;;;22.10;40.40;;;;;;4989369;28;20273;-60
2022/09/28 00:16:33;;;;;;;1.00;0.90;;;22.10;40.40;;;;;;4996297;28;20227;-64
2022/09/28 00:18:59;;;;;;;0.97;0.93;;;22.10;40.40;;;;;;4992372;28;20472;-60
2022/09/28 00:21:27;;;;;;;0.97;0.90;;;22.10;40.30;;;;;;4995803;28;20987;-60
2022/09/28 00:26:42;;;;;;;0.90;0.80;;;22.10;40.40;;;;;;4994036;28;21063;-60
2022/09/28 00:29:25;;;;;;;0.90;0.90;;;22.10;40.40;;;;;;4990617;28;20458;-60
2022/09/28 00:31:58;;;;;;;1.00;0.90;;;22.10;40.40;;;;;;4990304;28;20610;-61
2022/09/28 00:34:24;;;;;;;1.00;0.90;;;22.00;40.30;;;;;;4989327;28;20702;-60
2022/09/28 00:36:50;;;;;;;1.10;1.00;;;22.10;41.10;;;;;;4996143;28;20976;-62
2022/09/28 00:39:16;;;;;;;1.10;0.90;;;22.00;40.30;;;;;;4994124;28;20465;-61
2022/09/28 00:41:42;;;;;;;0.87;0.80;;;22.10;40.40;;;;;;5000209;28;20727;-60
2022/09/28 00:44:23;;;;;;;0.90;0.80;;;22.10;41.10;;;;;;4996665;28;20484;-62
2022/09/28 00:46:52;;;;;;;0.80;0.80;;;22.10;40.40;;;;;;4999904;28;20448;-60
2022/09/28 00:49:21;;;;;;;1.10;1.00;;;22.10;40.40;;;;;;4999112;28;20481;-64
2022/09/28 00:51:47;;;;;;;1.00;0.90;;;22.00;40.20;;;;;;4996559;28;20459;-60
2022/09/28 00:54:14;;;;;;;0.80;0.80;;;22.10;40.40;;;;;;4994496;28;20944;-62
2022/09/28 00:56:45;;;;;;;1.03;0.93;;;22.10;40.30;;;;;;5000573;28;21293;-65
2022/09/28 00:59:10;;;;;;;1.63;1.00;;;22.10;40.30;;;;;;4991768;28;20501;-66
2022/09/28 01:01:36;;;;;;;0.87;0.87;;;22.00;40.20;;;;;;4995569;28;20485;-60
2022/09/28 01:04:03;;;;;;;1.00;0.90;;;22.10;40.30;;;;;;4992851;28;20274;-66
2022/09/28 01:06:33;;;;;;;0.80;0.80;;;22.00;40.20;;;;;;4987472;28;20223;-61
2022/09/28 01:09:05;;;;;;;0.80;0.80;;;22.10;40.30;;;;;;4990735;28;20990;-60
2022/09/28 01:11:32;;;;;;;0.80;0.80;;;22.00;40.20;;;;;;4994902;28;20467;-62
2022/09/28 01:13:59;;;;;;;0.97;0.70;;;22.10;40.30;;;;;;4995337;28;20941;-59
2022/09/28 01:16:49;;;;;;;1.10;1.00;;;22.00;40.20;;;;;;4999383;28;20505;-62
2022/09/28 01:19:46;;;;;;;0.80;0.70;;;22.10;40.30;;;;;;4994775;28;20465;-60
2022/09/28 01:22:53;;;;;;;0.80;0.80;;;22.10;40.30;;;;;;4995946;28;20453;-66
2022/09/28 01:25:38;;;;;;;1.13;0.80;;;22.10;40.30;;;;;;4998103;28;20461;-61
2022/09/28 01:28:09;;;;;;;1.60;1.07;;;22.00;40.30;;;;;;4992651;28;20471;-67
2022/09/28 01:30:45;;;;;;;1.00;0.90;;;22.00;40.30;;;;;;4993364;28;20461;-60
2022/09/28 01:33:19;;;;;;;0.97;0.90;;;22.00;40.20;;;;;;4998203;28;20570;-60
2022/09/28 01:36:12;;;;;;;1.00;0.90;;;22.00;40.20;;;;;;4995555;28;20457;-60
2022/09/28 01:39:06;;;;;;;1.63;0.80;;;22.00;40.30;;;;;;4990735;28;20473;-60
2022/09/28 01:41:35;;;;;;;0.83;0.83;;;22.00;40.20;;;;;;4993771;28;20955;-60
2022/09/28 01:44:03;;;;;;;0.90;0.90;;;22.00;40.30;;;;;;4989571;28;20487;-67
2022/09/28 01:46:49;;;;;;;1.10;0.80;;;22.00;40.20;;;;;;4988416;28;20538;-65
2022/09/28 01:49:33;;;;;;;1.10;0.90;;;22.00;40.20;;;;;;4995028;28;20454;-66
2022/09/28 01:52:05;;;;;;;0.70;0.70;;;22.00;40.50;;;;;;4991123;28;20968;-61
2022/09/28 01:54:37;;;;;;;0.83;0.83;;;22.00;40.20;;;;;;4997427;28;20493;-60
2022/09/28 01:57:17;;;;;;;1.10;0.90;;;22.00;40.20;;;;;;4995454;28;20523;-63
2022/09/28 01:59:49;;;;;;;1.00;0.70;;;22.00;40.20;;;;;;4994898;28;20570;-61
2022/09/28 02:02:20;;;;;;;0.90;0.90;;;22.00;40.40;;;;;;4995097;28;20469;-60
2022/09/28 02:04:52;;;;;;;0.83;0.80;;;22.00;40.30;;;;;;4996679;28;20860;-60
2022/09/28 02:07:27;;;;;;;1.00;0.90;;;22.00;40.20;;;;;;4996467;28;20987;-61
2022/09/28 02:09:59;;;;;;;0.80;0.80;;;22.00;40.30;;;;;;4993897;28;20487;-61
2022/09/28 02:12:40;;;;;;;0.80;0.70;;;22.00;40.30;;;;;;4995831;28;20960;-64
2022/09/28 02:15:24;;;;;;;1.10;1.00;;;22.00;40.30;;;;;;4994755;28;20461;-62
2022/09/28 02:17:50;;;;;;;0.80;0.80;;;22.00;40.30;;;;;;4995075;28;20465;-60
2022/09/28 02:20:16;;;;;;;1.00;0.90;;;22.00;40.30;;;;;;4980182;28;20445;-60
2022/09/28 02:22:48;;;;;;;0.90;0.90;;;22.00;40.30;;;;;;4990577;28;20468;-60
2022/09/28 02:25:45;;;;;;;0.90;0.90;;;22.00;40.20;;;;;;4996232;28;20228;-62
2022/09/28 02:28:12;;;;;;;0.83;0.80;;;22.00;40.20;;;;;;4987899;28;20464;-63
2022/09/28 02:30:41;;;;;;;0.90;0.90;;;22.00;40.20;;;;;;4991747;28;20593;-60
2022/09/28 02:33:10;;;;;;;0.90;0.80;;;22.00;40.20;;;;;;4994094;28;20457;-61
2022/09/28 02:35:37;;;;;;;1.00;0.90;;;22.00;40.20;;;;;;4998446;28;21717;-63
2022/09/28 02:38:03;;;;;;;1.03;0.70;;;22.00;40.20;;;;;;4993589;28;20449;-65
2022/09/28 02:40:32;;;;;;;0.80;0.80;;;22.00;40.20;;;;;;4995516;28;20461;-61
2022/09/28 02:43:23;;;;;;;1.00;0.90;;;22.00;40.20;;;;;;4991483;28;20220;-64
2022/09/28 02:46:06;;;;;;;1.00;1.00;;;22.00;40.20;;;;;;4997548;28;20484;-60
2022/09/28 02:48:43;;;;;;;1.07;0.77;;;22.00;40.20;;;;;;4996334;28;20469;-60
2022/09/28 02:51:33;;;;;;;1.10;0.93;;;22.00;40.20;;;;;;4994997;28;20965;-64
2022/09/28 02:54:31;;;;;;;1.03;0.93;;;22.00;40.30;;;;;;4994188;28;20486;-60
2022/09/28 02:57:22;;;;;;;0.90;0.90;;;22.00;40.30;;;;;;4988963;28;20469;-61
2022/09/28 03:00:10;;;;;;;0.90;0.90;;;22.00;40.20;;;;;;4991949;28;21025;-61
2022/09/28 03:02:54;;;;;;;0.80;0.80;;;22.00;40.30;;;;;;4995091;28;20500;-60
2022/09/28 03:05:36;;;;;;;0.90;0.90;;;22.00;40.30;;;;;;4994581;28;20480;-61
2022/09/28 03:08:09;;;;;;;0.90;0.90;;;22.00;40.30;;;;;;4991061;28;20580;-60
2022/09/28 03:10:48;;;;;;;1.10;1.00;;;22.00;40.30;;;;;;4995570;28;20461;-60
2022/09/28 03:13:15;;;;;;;1.10;1.00;;;22.00;40.30;;;;;;4993482;28;20446;-61
2022/09/28 03:15:41;;;;;;;0.80;0.70;;;22.00;40.30;;;;;;4989750;28;20492;-64
2022/09/28 03:18:07;;;;;;;0.90;0.90;;;21.90;40.20;;;;;;4978286;28;20955;-62
2022/09/28 03:20:32;;;;;;;1.00;0.90;;;22.00;40.30;;;;;;4996910;28;20477;-60
2022/09/28 03:22:59;;;;;;;0.80;0.80;;;21.90;40.20;;;;;;4993028;28;20307;-60
2022/09/28 03:25:25;;;;;;;1.10;1.00;;;21.90;41.00;;;;;;4992452;28;21012;-64
2022/09/28 03:27:51;;;;;;;0.80;0.80;;;22.00;40.30;;;;;;4990895;28;21023;-62
2022/09/28 03:30:17;;;;;;;0.80;0.80;;;22.00;40.30;;;;;;4989711;28;20477;-62
2022/09/28 03:32:43;;;;;;;0.90;0.90;;;22.00;40.30;;;;;;4995114;28;20233;-60
2022/09/28 03:35:09;;;;;;;1.53;1.00;;;22.00;40.30;;;;;;4991297;28;20255;-65
2022/09/28 03:37:35;;;;;;;1.20;1.10;;;21.90;40.20;;;;;;4993578;28;20219;-61
2022/09/28 03:40:00;;;;;;;0.90;0.90;;;22.00;40.30;;;;;;4997348;28;20975;-59
2022/09/28 03:42:26;;;;;;;0.90;0.87;;;21.90;40.20;;;;;;4983223;28;20231;-62
2022/09/28 03:44:51;;;;;;;0.90;0.90;;;22.00;40.30;;;;;;4989555;28;20231;-68
2022/09/28 03:47:18;;;;;;;1.00;0.90;;;22.00;40.30;;;;;;4996535;28;20682;-60
2022/09/28 03:49:44;;;;;;;0.90;0.90;;;21.90;40.20;;;;;;4995261;28;20662;-60
2022/09/28 03:52:11;;;;;;;0.93;0.90;;;21.90;40.20;;;;;;4992660;28;20794;-61
2022/09/28 03:54:37;;;;;;;1.10;1.00;;;21.90;40.20;;;;;;4992761;28;20818;-62
2022/09/28 03:57:02;;;;;;;0.80;0.80;;;21.90;40.20;;;;;;4990837;28;20949;-66
2022/09/28 03:59:28;;;;;;;1.07;1.03;;;21.90;40.20;;;;;;4993139;28;21194;-66
2022/09/28 04:01:53;;;;;;;1.10;1.00;;;21.90;40.20;;;;;;4988486;28;20280;-61
2022/09/28 04:04:19;;;;;;;0.93;0.93;;;21.90;40.20;;;;;;4977216;28;20282;-63
2022/09/28 04:06:44;;;;;;;1.10;1.00;;;22.00;40.30;;;;;;4993169;28;20281;-60
2022/09/28 04:09:11;;;;;;;1.00;0.90;;;21.90;40.20;;;;;;4992636;28;20277;-61
2022/09/28 04:11:36;;;;;;;0.80;0.80;;;21.90;40.20;;;;;;4997696;28;20232;-60
2022/09/28 04:14:02;;;;;;;1.00;0.90;;;21.90;40.20;;;;;;4993915;28;22106;-64
2022/09/28 04:16:27;;;;;;;1.20;1.10;;;21.90;40.20;;;;;;4993269;28;20224;-60
2022/09/28 04:18:53;;;;;;;1.20;1.10;;;21.90;40.20;;;;;;4998629;28;20687;-63
2022/09/28 04:21:19;;;;;;;1.10;1.00;;;21.90;40.20;;;;;;4997064;28;20227;-66
2022/09/28 04:23:46;;;;;;;1.30;1.20;;;21.90;40.20;;;;;;5001401;28;20223;-62
2022/09/28 04:26:20;;;;;;;1.00;1.00;;;22.00;40.20;;;;;;4998086;28;20489;-61
2022/09/28 04:31:58;;;;;;;1.40;1.30;;;22.00;40.20;;;;;;4995152;28;20475;-62
2022/09/28 04:34:24;;;;;;;1.67;1.10;;;22.00;40.10;;;;;;4992366;28;20519;-61
2022/09/28 04:36:50;;;;;;;1.07;1.00;;;22.00;40.10;;;;;;4997776;28;20536;-60
2022/09/28 04:39:16;;;;;;;1.10;1.00;;;22.00;40.10;;;;;;4988235;28;20675;-61
2022/09/28 04:41:42;;;;;;;1.00;1.00;;;22.00;40.80;;;;;;4986099;28;20231;-62
2022/09/28 04:44:08;;;;;;;1.40;1.30;;;22.00;40.00;;;;;;4993859;28;20930;-60
2022/09/28 04:46:34;;;;;;;1.87;1.77;;;22.00;40.00;;;;;;4994223;28;20223;-59
2022/09/28 04:49:01;;;;;;;1.23;1.13;;;22.10;40.10;;;;;;4991495;28;20476;-66
2022/09/28 04:51:29;;;;;;;1.30;1.20;;;22.10;40.00;;;;;;4991703;28;20716;-61
2022/09/28 04:53:55;;;;;;;2.40;1.10;;;22.00;39.90;;;;;;4987996;28;20473;-60
2022/09/28 04:56:21;;;;;;;1.23;1.13;;;22.10;40.00;;;;;;4990322;28;20466;-60
2022/09/28 04:58:46;;;;;;;4.20;1.10;;;22.00;39.90;;;;;;4984083;28;20230;-61
2022/09/28 05:01:15;;;;;;;1.20;1.10;;;22.00;39.90;;;;;;4995850;28;20235;-60
2022/09/28 05:03:40;;;;;;;1.13;1.03;;;22.10;39.90;;;;;;4997965;28;20251;-60
2022/09/28 05:06:07;;;;;;;1.10;1.00;;;22.10;40.00;;;;;;4992276;28;20500;-60
2022/09/28 05:08:34;;;;;;;1.20;1.10;;;22.00;39.90;;;;;;4994827;28;20338;-64
2022/09/28 05:11:05;;;;;;;1.30;1.20;;;22.10;40.00;;;;;;4993388;28;20467;-60
2022/09/28 05:13:34;;;;;;;1.00;1.00;;;22.10;39.90;;;;;;4995830;28;20469;-60
2022/09/28 05:16:00;;;;;;;1.93;1.03;;;22.00;39.90;;;;;;4989713;28;20465;-66
2022/09/28 05:18:25;;;;;;;1.63;1.20;;;22.10;39.90;;;;;;4979226;28;20804;-66
2022/09/28 05:20:51;;;;;;;1.00;1.00;;;22.10;40.00;;;;;;4990096;28;20250;-61
2022/09/28 05:23:17;;;;;;;1.10;1.00;;;22.10;39.90;;;;;;4991351;28;20641;-64
2022/09/28 05:25:44;;;;;;;1.00;1.00;;;22.10;39.90;;;;;;4994518;28;20235;-61
2022/09/28 05:28:10;;;;;;;1.00;0.90;;;22.10;40.00;;;;;;4994819;28;20220;-60
2022/09/28 05:30:36;;;;;;;1.33;1.10;;;22.10;40.00;;;;;;4994266;28;20464;-60
2022/09/28 05:33:02;;;;;;;1.03;0.93;;;22.10;39.90;;;;;;4992840;28;20830;-62
2022/09/28 05:35:28;;;;;;;3.33;1.10;;;22.10;39.90;;;;;;4992548;28;20991;-63
2022/09/28 05:37:55;;;;;;;1.93;1.20;;;22.10;39.90;;;;;;4987916;28;20458;-62
2022/09/28 05:40:20;;;;;;;1.00;0.90;;;22.10;39.80;;;;;;4984423;28;20628;-64
2022/09/28 05:42:46;;;;;;;1.43;1.00;;;22.10;39.90;;;;;;4994023;28;20501;-66
2022/09/28 05:45:12;;;;;;;1.17;1.07;;;22.10;39.90;;;;;;4992780;28;20382;-64
2022/09/28 05:47:39;;;;;;;1.57;1.47;;;22.10;39.90;;;;;;5001308;28;20222;-61
2022/09/28 05:50:06;;;;;;;1.10;1.00;;;22.10;39.80;;;;;;4999735;28;20234;-61
2022/09/28 05:52:31;;;;;;;1.20;1.03;;;22.10;39.80;;;;;;5000304;28;20460;-65
2022/09/28 05:54:57;;;;;;;1.20;1.10;;;22.10;39.80;;;;;;4998911;28;20492;-65
2022/09/28 05:57:23;;;;;;;1.30;1.20;;;22.10;39.80;;;;;;4997931;28;20575;-63
2022/09/28 05:59:48;;;;;;;1.10;1.00;;;22.10;39.80;;;;;;4984955;28;20220;-61
2022/09/28 06:02:14;;;;;;;1.20;1.10;;;22.10;39.80;;;;;;4999464;28;21798;-61
2022/09/28 06:04:39;;;;;;;1.67;1.23;;;22.10;39.80;;;;;;4997916;28;20234;-66
2022/09/28 06:07:05;;;;;;;1.10;1.00;;;22.10;39.80;;;;;;4994956;28;20231;-61
2022/09/28 06:09:30;;;;;;;3.27;1.13;;;22.10;39.80;;;;;;4997441;28;20227;-61
2022/09/28 06:11:58;;;;;;;1.60;1.30;;;22.10;39.80;;;;;;4999328;28;20220;-60
2022/09/28 06:14:24;;;;;;;1.20;1.10;;;22.10;39.80;;;;;;4998352;28;20582;-65
2022/09/28 06:16:50;;;;;;;1.20;1.10;;;22.10;39.80;;;;;;4997251;28;20503;-68
2022/09/28 06:19:16;;;;;;;1.20;1.00;;;22.10;39.80;;;;;;5001485;28;20449;-63
2022/09/28 06:21:42;;;;;;;2.50;1.00;;;22.10;39.80;;;;;;4999393;28;20472;-64
2022/09/28 06:24:07;;;;;;;2.00;1.20;;;22.10;39.90;;;;;;4996233;28;20683;-65
2022/09/28 06:26:33;;;;;;;1.20;1.10;;;22.10;39.80;;;;;;4998224;28;20235;-67
2022/09/28 06:29:02;;;;;;;1.20;1.10;;;22.10;39.80;;;;;;4993879;28;20702;-63
2022/09/28 06:31:30;;;;;;;1.97;1.17;;;22.10;39.80;;;;;;5001289;28;20223;-63
2022/09/28 06:33:55;;;;;;;2.67;1.20;;;22.10;40.60;;;;;;4994391;28;20469;-63
2022/09/28 06:36:21;;;;;;;1.40;1.30;;;22.10;39.80;;;;;;5001758;28;20444;-61
2022/09/28 06:38:47;;;;;;;2.23;1.40;;;22.10;39.90;;;;;;4998311;28;20224;-60
2022/09/28 06:41:13;;;;;;;1.30;1.20;;;22.10;39.80;;;;;;4998865;28;20234;-61
2022/09/28 06:43:38;;;;;;;1.20;1.10;;;22.10;39.80;;;;;;4997041;28;20298;-61
2022/09/28 06:46:05;;;;;;;1.17;1.03;;;22.10;39.80;;;;;;4998433;28;20283;-62
2022/09/28 06:48:32;;;;;;;3.50;1.70;;;22.10;39.80;;;;;;4996945;28;20228;-60
2022/09/28 06:50:59;;;;;;;2.77;1.30;;;22.10;39.80;;;;;;4998385;28;20454;-64
2022/09/28 06:53:27;;;;;;;1.10;1.00;;;22.10;39.70;;;;;;4993550;28;20460;-65
2022/09/28 06:55:52;;;;;;;1.10;1.00;;;22.10;39.70;;;;;;4997386;28;20998;-63
2022/09/28 06:58:19;;;;;;;1.47;1.00;;;22.10;39.70;;;;;;4999832;28;20481;-62
2022/09/28 07:00:46;;;;;;;1.23;1.10;;;22.10;39.70;;;;;;4994086;28;20914;-61
2022/09/28 07:03:14;;;;;;;1.10;1.00;;;22.10;39.70;;;;;;4999057;28;20465;-70
2022/09/28 07:05:43;;;;;;;1.77;1.00;;;22.10;39.70;;;;;;4996815;28;20477;-61
2022/09/28 07:08:09;;;;;;;1.23;1.13;;;22.10;39.70;;;;;;4996135;28;20482;-63
2022/09/28 07:10:34;;;;;;;1.03;0.93;;;22.10;39.70;;;;;;4998050;28;20516;-61
2022/09/28 07:13:02;;;;;;;1.10;1.00;;;22.10;39.70;;;;;;4994028;28;20282;-60
2022/09/28 07:15:28;;;;;;;1.20;1.10;;;22.10;39.70;;;;;;4995533;28;20223;-61
2022/09/28 07:18:01;;;;;;;1.20;1.10;;;22.10;39.70;;;;;;4997960;28;20794;-62
2022/09/28 07:20:28;;;;;;;0.77;0.77;;;22.10;39.70;;;;;;4999045;28;20306;-64
2022/09/28 07:22:54;;;;;;;1.03;0.97;;;22.10;39.70;;;;;;4998938;28;20477;-62
2022/09/28 07:25:21;;;;;;;1.10;1.00;;;22.10;39.70;;;;;;4997860;28;20464;-63
2022/09/28 07:27:47;;;;;;;1.10;1.00;;;22.10;39.70;;;;;;4994919;28;20461;-61
2022/09/28 07:30:13;;;;;;;1.27;1.17;;;22.10;39.80;;;;;;4996605;28;20449;-61
2022/09/28 07:32:39;;;;;;;1.13;1.00;;;22.10;39.70;;;;;;4997976;28;20224;-60
2022/09/28 07:35:07;;;;;;;1.23;0.97;;;22.10;39.70;;;;;;4998105;28;20472;-61
2022/09/28 07:37:34;;;;;;;1.10;1.00;;;22.10;39.70;;;;;;5000703;28;20475;-61
2022/09/28 07:42:46;;;;;;;1.30;0.90;;;22.10;39.70;;;;;;4996815;28;20529;-60
2022/09/28 07:45:11;;;;;;;1.20;1.10;;;22.10;39.70;;;;;;4998315;28;20507;-63
2022/09/28 07:47:37;;;;;;;1.10;1.00;;;22.10;39.70;;;;;;4993546;28;20251;-62
2022/09/28 07:50:03;;;;;;;1.50;1.00;;;22.10;39.60;;;;;;4998048;28;20222;-61
2022/09/28 07:52:28;;;;;;;1.20;1.10;;;22.10;39.60;;;;;;4992094;28;20232;-61
2022/09/28 07:54:54;;;;;;;0.90;0.80;;;22.10;39.70;;;;;;5000754;28;20219;-61
2022/09/28 07:57:21;;;;;;;1.00;0.90;;;22.10;39.60;;;;;;4998723;28;20231;-64
2022/09/28 07:59:48;;;;;;;1.00;0.90;;;22.10;39.60;;;;;;4996099;28;20506;-63
2022/09/28 08:02:17;;;;;;;1.00;0.93;;;22.10;39.60;;;;;;4997608;28;20504;-71
2022/09/28 08:04:42;;;;;;;1.00;0.90;;;22.10;39.60;;;;;;4997174;28;20548;-67
2022/09/28 08:07:10;;;;;;;1.13;1.03;;;22.10;39.60;;;;;;4995236;28;21027;-61
2022/09/28 08:09:35;;;;;;;1.03;0.93;;;22.10;39.60;;;;;;4997741;28;20230;-65
2022/09/28 08:12:03;;;;;;;0.80;0.80;;;22.10;40.30;;;;;;4996820;28;20457;-61
2022/09/28 08:14:32;;;;;;;1.00;0.90;;;22.10;39.60;;;;;;4998982;28;20226;-61
2022/09/28 08:16:58;;;;;;;1.00;1.00;;;22.10;39.50;;;;;;4999716;28;20453;-62
2022/09/28 08:19:23;;;;;;;1.10;1.00;;;22.10;39.60;;;;;;4997849;28;20551;-64
2022/09/28 08:21:49;;;;;;;1.00;0.90;;;22.10;39.50;;;;;;4998651;28;20223;-61
2022/09/28 08:24:16;;;;;;;1.07;0.90;;;22.10;39.50;;;;;;4995403;28;20282;-61
2022/09/28 08:26:42;;;;;;;0.80;0.80;;;22.10;39.50;;;;;;4998314;28;20251;-63
2022/09/28 08:29:08;;;;;;;0.97;0.90;;;22.10;39.50;;;;;;4998432;28;20456;-64
2022/09/28 08:31:33;;;;;;;1.50;1.00;;;22.10;39.50;;;;;;4996313;28;20223;-61
2022/09/28 08:33:59;;;;;;;0.90;0.80;;;22.10;39.50;;;;;;4993250;28;20458;-65
2022/09/28 08:36:25;;;;;;;1.10;1.00;;;22.10;39.40;;;;;;4998065;28;20319;-66
2022/09/28 08:38:50;;;;;;;1.93;1.13;;;22.10;39.50;;;;;;4991140;28;20754;-61
2022/09/28 08:41:38;;;;;;;1.00;1.00;;;22.10;39.40;;;;;;4988479;28;21677;-65
2022/09/28 08:44:22;;;;;;;0.93;0.80;;;22.10;39.50;;;;;;4994040;28;20282;-61
2022/09/28 08:46:54;;;;;;;1.67;1.00;;;22.10;39.40;;;;;;4994272;28;20599;-62
2022/09/28 08:49:29;;;;;;;2.03;1.07;;;22.10;39.40;;;;;;4994579;28;20473;-64
2022/09/28 08:52:08;;;;;;;1.00;0.90;;;22.10;39.40;;;;;;4995923;28;21002;-67
2022/09/28 08:54:57;;;;;;;0.90;0.90;;;22.10;39.40;;;;;;4994897;28;20551;-64
2022/09/28 08:57:44;;;;;;;0.80;0.80;;;22.10;39.40;;;;;;4993499;28;20537;-63
2022/09/28 09:00:31;;;;;;;1.00;0.90;;;22.10;39.50;;;;;;4987613;28;20503;-67
2022/09/28 09:02:56;;;;;;;1.20;1.10;;;22.10;39.40;;;;;;4997951;28;20949;-62
2022/09/28 09:05:42;;;;;;;0.97;0.90;;;22.10;39.50;;;;;;5004543;28;20459;-66
2022/09/28 09:08:29;;;;;;;0.80;0.80;;;22.10;39.40;;;;;;5000090;28;20543;-61
2022/09/28 09:11:12;;;;;;;0.90;0.90;;;22.10;39.50;;;;;;4998886;28;20457;-69
2022/09/28 09:13:46;;;;;;;1.03;0.93;;;22.10;39.50;;;;;;4998779;28;20462;-66
2022/09/28 09:16:30;;;;;;;1.20;1.00;;;22.10;39.50;;;;;;4999873;28;20431;-61
2022/09/28 09:19:34;;;;;;;0.97;0.90;;;22.10;39.50;;;;;;4995275;28;20457;-63
2022/09/28 09:22:35;;;;;;;0.93;0.93;;;22.10;39.50;;;;;;4993493;28;20484;-69
2022/09/28 09:25:08;;;;;;;1.07;0.97;;;22.10;39.50;;;;;;4999776;28;20480;-64
2022/09/28 09:27:48;;;;;;;1.20;0.80;;;22.10;39.50;;;;;;4999951;28;20466;-63
2022/09/28 09:30:17;;;;;;;0.80;0.80;;;22.10;39.50;;;;;;5002725;28;20468;-63
2022/09/28 09:32:54;;;;;;;0.83;0.80;;;22.10;39.60;;;;;;5000478;28;20477;-62
2022/09/28 09:35:30;;;;;;;1.10;1.00;;;22.10;39.60;;;;;;4998835;28;20463;-61
2022/09/28 09:38:32;;;;;;;0.80;0.80;;;22.10;39.60;;;;;;4996385;28;20452;-62
2022/09/28 09:41:06;;;;;;;0.80;0.80;;;22.10;39.60;;;;;;4980073;28;20460;-63
2022/09/28 09:43:49;;;;;;;0.90;0.90;;;22.10;39.60;;;;;;4995005;28;21357;-62
2022/09/28 09:46:32;;;;;;;0.80;0.77;;;22.10;39.60;;;;;;4995027;28;20462;-63
2022/09/28 09:49:05;;;;;;;0.80;0.80;;;22.10;39.60;;;;;;4992123;28;20496;-62
2022/09/28 09:51:37;;;;;;;0.87;0.87;;;22.10;39.60;;;;;;5002084;28;20458;-64
2022/09/28 09:54:13;;;;;;;1.03;0.93;;;22.10;39.70;;;;;;4997403;28;20879;-66
2022/09/28 09:56:43;;;;;;;0.80;0.80;;;22.10;39.70;;;;;;5001038;28;20456;-64
2022/09/28 09:59:17;;;;;;;0.90;0.80;;;22.10;39.60;;;;;;5000057;28;20977;-61
2022/09/28 10:01:44;;;;;;;1.07;0.97;;;22.10;39.60;;;;;;5000987;28;20531;-65
2022/09/28 10:04:26;;;;;;;0.70;0.70;;;22.10;39.60;;;;;;4992245;28;20465;-66
2022/09/28 10:06:57;;;;;;;0.90;0.80;;;22.10;39.70;;;;;;4997819;28;20457;-64
2022/09/28 10:09:29;;;;;;;1.20;1.10;;;22.10;39.60;;;;;;4993992;28;20458;-65
2022/09/28 10:11:55;;;;;;;0.80;0.80;;;22.10;39.60;;;;;;4994222;28;20468;-61
2022/09/28 10:14:24;;;;;;;1.00;0.90;;;22.10;39.60;;;;;;4994765;28;20468;-62
2022/09/28 10:16:52;;;;;;;1.43;0.90;;;22.10;39.60;;;;;;4992840;28;20234;-68
2022/09/28 10:19:20;;;;;;;0.73;0.73;;;22.10;39.60;;;;;;4994336;28;20468;-63
2022/09/28 10:21:50;;;;;;;0.80;0.80;;;22.10;39.60;;;;;;5000447;28;20979;-63
2022/09/28 10:24:27;;;;;;;1.00;0.83;;;22.10;39.60;;;;;;4994581;28;20951;-66
2022/09/28 10:26:54;;;;;;;1.47;1.37;;;22.10;39.60;;;;;;4994225;28;21001;-62
2022/09/28 10:29:24;;;;;;;0.83;0.80;;;22.10;39.60;;;;;;4995886;28;20982;-64
2022/09/28 10:31:52;;;;;;;0.80;0.80;;;22.10;39.60;;;;;;4996747;28;20495;-63
2022/09/28 10:34:25;;;;;;;0.73;0.70;;;22.10;39.60;;;;;;4995894;28;21094;-65
2022/09/28 10:36:54;;;;;;;0.90;0.80;;;22.10;39.60;;;;;;4990139;28;20471;-62
2022/09/28 10:39:31;;;;;;;1.00;0.90;;;22.10;39.60;;;;;;4986652;28;20469;-66
2022/09/28 10:41:58;;;;;;;0.80;0.80;;;22.10;39.60;;;;;;4996586;28;20464;-62
2022/09/28 10:44:25;;;;;;;0.90;0.80;;;22.10;39.60;;;;;;4996031;28;20479;-67
2022/09/28 10:47:16;;;;;;;0.90;0.80;;;22.10;39.60;;;;;;4996025;28;20520;-63
2022/09/28 10:49:45;;;;;;;0.93;0.87;;;22.10;39.60;;;;;;4992715;28;20511;-70
2022/09/28 10:52:32;;;;;;;0.80;0.73;;;22.10;39.70;;;;;;4997976;28;20453;-65
2022/09/28 10:54:58;;;;;;;0.80;0.80;;;22.10;39.70;;;;;;4995448;28;20985;-63
2022/09/28 10:57:33;;;;;;;1.50;0.80;;;22.10;39.70;;;;;;4996304;28;20464;-69
2022/09/28 11:00:00;;;;;;;0.93;0.80;;;22.10;39.70;;;;;;4996118;28;20309;-61
2022/09/28 11:02:44;;;;;;;0.83;0.80;;;22.10;39.70;;;;;;4995353;28;20469;-69
2022/09/28 11:05:20;;;;;;;0.80;0.80;;;22.10;39.60;;;;;;4993879;28;20484;-70
2022/09/28 11:07:47;;;;;;;1.20;1.10;;;22.10;39.70;;;;;;4997071;28;20869;-65
2022/09/28 11:10:31;;;;;;;0.80;0.73;;;22.10;39.60;;;;;;4998099;28;20476;-66
2022/09/28 11:12:58;;;;;;;0.87;0.83;;;22.10;39.60;;;;;;4987295;28;20512;-65
2022/09/28 11:15:30;;;;;;;1.00;0.80;;;22.10;39.70;;;;;;4996509;28;20457;-67
2022/09/28 11:18:15;;;;;;;0.90;0.80;;;22.10;39.60;;;;;;4988344;28;20474;-65
2022/09/28 11:20:41;;;;;;;0.97;0.87;;;22.10;39.70;;;;;;4988188;28;20971;-67
2022/09/28 11:23:20;;;;;;;1.30;0.90;;;22.10;39.60;;;;;;4994938;28;20483;-63
2022/09/28 11:26:16;;;;;;;0.80;0.80;;;22.10;39.60;;;;;;4993159;28;20262;-64
2022/09/28 11:28:42;;;;;;;1.00;0.80;;;22.10;39.60;;;;;;4978019;28;24236;-62
2022/09/28 11:31:08;;;;;;;0.80;0.80;;;22.10;39.60;;;;;;4983909;28;20504;-64
2022/09/28 11:33:36;;;;;;;1.07;0.97;;;22.10;39.60;;;;;;4991949;28;20247;-66
2022/09/28 11:36:15;;;;;;;0.80;0.80;;;22.10;39.60;;;;;;4991479;28;20465;-62
2022/09/28 11:38:47;;;;;;;0.80;0.80;;;22.20;39.70;;;;;;4997315;28;20477;-67
2022/09/28 11:41:31;;;;;;;0.80;0.80;;;22.20;39.70;;;;;;4993780;28;20464;-64
2022/09/28 11:44:02;;;;;;;0.70;0.70;;;22.10;39.60;;;;;;4991811;28;20477;-67
2022/09/28 11:46:54;;;;;;;0.90;0.90;;;22.10;39.60;;;;;;4990121;28;20558;-62
2022/09/28 11:49:32;;;;;;;0.70;0.70;;;22.10;39.60;;;;;;4988006;28;20480;-66
2022/09/28 11:52:05;;;;;;;0.80;0.80;;;22.10;39.60;;;;;;4984116;28;20493;-64
2022/09/28 11:54:46;;;;;;;0.90;0.90;;;22.20;39.70;;;;;;4992803;28;20465;-62
2022/09/28 11:57:32;;;;;;;1.00;1.00;;;22.20;39.70;;;;;;4991617;28;20465;-64
2022/09/28 12:00:01;;;;;;;0.80;0.80;;;22.10;39.60;;;;;;4989385;28;20453;-68
2022/09/28 12:02:34;;;;;;;1.00;0.90;;;22.10;39.60;;;;;;4989476;28;20488;-68
2022/09/28 12:05:24;;;;;;;0.93;0.93;;;22.10;39.60;;;;;;4987897;28;20647;-69
2022/09/28 12:08:07;;;;;;;0.70;0.70;;;22.20;39.70;;;;;;4978336;28;20473;-65
2022/09/28 12:10:42;;;;;;;0.93;0.90;;;22.20;39.70;;;;;;4989107;28;21132;-62
2022/09/28 12:13:13;;;;;;;1.30;0.77;;;22.20;39.80;;;;;;4995877;28;20467;-62
2022/09/28 12:16:13;;;;;;;0.90;0.90;;;22.20;39.70;;;;;;4992736;28;20475;-62
2022/09/28 12:18:50;;;;;;;0.80;0.80;;;22.20;39.70;;;;;;4990318;28;20487;-65
2022/09/28 12:21:36;;;;;;;2.03;0.90;;;22.20;39.70;;;;;;4991856;28;20472;-61
2022/09/28 12:24:12;;;;;;;0.83;0.80;;;22.20;39.70;;;;;;4992978;28;20565;-66
2022/09/28 12:26:37;;;;;;;0.70;0.70;;;22.20;39.80;;;;;;4996175;28;20468;-62
2022/09/28 12:29:10;;;;;;;0.90;0.77;;;22.20;39.70;;;;;;4992701;28;20568;-63
2022/09/28 12:31:59;;;;;;;0.80;0.80;;;22.20;39.70;;;;;;4994149;28;20325;-61
2022/09/28 12:34:25;;;;;;;0.80;0.70;;;22.20;39.70;;;;;;4994029;28;20796;-63
2022/09/28 12:36:59;;;;;;;0.80;0.80;;;22.30;39.90;;;;;;4999005;28;20581;-62
2022/09/28 12:39:44;;;;;;;0.80;0.80;;;22.30;39.90;;;;;;4995823;28;20759;-64
2022/09/28 12:42:32;;;;;;;0.70;0.70;;;22.30;39.80;;;;;;4994906;28;20477;-64
2022/09/28 12:45:26;;;;;;;0.80;0.73;;;22.20;39.80;;;;;;4970997;28;20496;-65
2022/09/28 12:48:04;;;;;;;0.70;0.70;;;22.20;39.80;;;;;;5001372;28;20816;-63
2022/09/28 12:50:55;;;;;;;0.80;0.80;;;22.30;39.90;;;;;;4996791;28;20480;-65
2022/09/28 12:54:10;;;;;;;0.70;0.70;;;22.20;39.80;;;;;;4991883;28;20449;-62
2022/09/28 12:57:01;;;;;;;0.67;0.60;;;22.30;39.90;;;;;;4988122;28;20461;-61
2022/09/28 12:59:41;;;;;;;0.87;0.87;;;22.20;39.80;;;;;;4992475;28;20500;-69
2022/09/28 13:02:59;;;;;;;0.70;0.70;;;22.20;39.80;;;;;;4996439;28;20500;-66
2022/09/28 13:05:43;;;;;;;0.83;0.70;;;22.20;39.80;;;;;;4966319;28;20943;-62
2022/09/28 13:08:34;;;;;;;1.57;0.90;;;22.20;39.80;;;;;;4996264;28;20468;-63
2022/09/28 13:11:25;;;;;;;0.83;0.80;;;22.20;39.90;;;;;;4998786;28;20476;-61
2022/09/28 13:14:28;;;;;;;0.80;0.80;;;22.30;39.90;;;;;;4999176;28;20454;-60
2022/09/28 13:17:14;;;;;;;0.83;0.83;;;22.30;39.90;;;;;;4945085;28;20931;-63
2022/09/28 13:19:50;;;;;;;0.80;0.80;;;22.30;39.90;;;;;;4993314;28;20479;-61
2022/09/28 13:22:28;;;;;;;0.87;0.73;;;22.30;39.90;;;;;;4996027;28;21115;-61
2022/09/28 13:24:57;;;;;;;0.80;0.80;;;22.30;39.90;;;;;;4994516;28;21129;-63